createdAt,value
2019-03-19T00:01:54.275Z,3.30
2019-03-19T00:06:59.517Z,3.13
2019-03-19T00:12:04.568Z,2.57
2019-03-19T00:17:09.577Z,2.53
2019-03-19T00:22:14.917Z,3.20
2019-03-19T00:27:19.962Z,2.37
2019-03-19T00:32:25.015Z,3.43
2019-03-19T00:37:30.211Z,2.50
2019-03-19T00:42:35.429Z,3.83
2019-03-19T00:47:40.581Z,2.83
2019-03-19T00:52:45.588Z,3.17
2019-03-19T00:57:50.589Z,2.80
2019-03-19T01:02:55.954Z,2.43
2019-03-19T01:08:01.621Z,3.10
2019-03-19T01:13:06.980Z,2.87
2019-03-19T01:18:12.000Z,2.33
2019-03-19T01:23:17.088Z,2.70
2019-03-19T01:28:22.139Z,2.53
2019-03-19T01:33:27.116Z,2.07
2019-03-19T01:38:32.246Z,2.57
2019-03-19T01:43:37.301Z,2.43
2019-03-19T01:48:42.256Z,3.47
2019-03-19T01:53:47.411Z,3.00
2019-03-19T01:58:52.464Z,2.63
2019-03-19T02:03:57.433Z,3.27
2019-03-19T02:09:02.444Z,2.40
2019-03-19T02:14:07.445Z,2.97
2019-03-19T02:19:12.676Z,2.93
2019-03-19T02:24:17.700Z,2.83
2019-03-19T02:29:22.755Z,2.50
2019-03-19T02:34:27.888Z,3.10
2019-03-19T02:39:32.963Z,2.53
2019-03-19T02:44:38.007Z,2.77
2019-03-19T02:49:43.070Z,2.40
2019-03-19T02:54:48.358Z,2.93
2019-03-19T02:59:53.337Z,2.03
2019-03-19T03:04:58.741Z,2.30
2019-03-19T03:10:04.272Z,2.20
2019-03-19T03:15:09.363Z,3.07
2019-03-19T03:20:16.095Z,2.33
2019-03-19T03:25:21.448Z,2.77
2019-03-19T03:30:26.406Z,2.40
2019-03-19T03:35:31.410Z,1.97
2019-03-19T03:40:36.398Z,2.20
2019-03-19T03:45:41.400Z,1.33
2019-03-19T03:50:46.714Z,1.53
2019-03-19T03:55:52.879Z,1.80
2019-03-19T04:00:58.047Z,2.30
2019-03-19T04:06:03.106Z,1.60
2019-03-19T04:11:08.155Z,1.40
2019-03-19T04:16:15.860Z,2.10
2019-03-19T04:21:20.117Z,2.23
2019-03-19T04:26:25.135Z,2.27
2019-03-19T04:31:32.615Z,2.80
2019-03-19T04:36:37.117Z,2.50
2019-03-19T04:41:42.133Z,2.50
2019-03-19T04:46:47.217Z,1.93
2019-03-19T04:51:52.270Z,2.83
2019-03-19T04:56:57.293Z,2.53
2019-03-19T05:02:02.731Z,2.17
2019-03-19T05:07:09.539Z,2.07
2019-03-19T05:12:14.635Z,2.60
2019-03-19T05:17:19.689Z,2.57
2019-03-19T05:22:24.743Z,2.67
2019-03-19T05:27:37.356Z,2.50
2019-03-19T05:32:36.384Z,3.90
2019-03-19T05:37:42.612Z,3.17
2019-03-19T05:42:47.618Z,3.57
2019-03-19T05:47:52.955Z,2.97
2019-03-19T05:52:58.143Z,2.90
2019-03-19T05:58:03.361Z,3.30
2019-03-19T06:03:08.553Z,2.63
2019-03-19T06:08:15.412Z,2.87
2019-03-19T06:13:20.381Z,2.87
2019-03-19T06:18:34.650Z,3.47
2019-03-19T06:23:32.144Z,3.57
2019-03-19T06:28:37.207Z,2.57
2019-03-19T06:33:42.253Z,3.27
2019-03-19T06:38:47.308Z,2.53
2019-03-19T06:43:52.666Z,2.80
2019-03-19T06:48:57.757Z,3.10
2019-03-19T06:54:02.788Z,3.30
2019-03-19T06:59:07.828Z,3.00
2019-03-19T07:04:13.775Z,3.00
2019-03-19T07:09:19.162Z,3.13
2019-03-19T07:14:24.218Z,3.60
2019-03-19T07:19:29.268Z,2.60
2019-03-19T07:24:36.157Z,3.70
2019-03-19T07:29:41.223Z,3.00
2019-03-19T07:34:46.231Z,2.93
2019-03-19T07:39:51.327Z,2.87
2019-03-19T07:44:56.449Z,3.00
2019-03-19T07:50:01.454Z,3.23
2019-03-19T07:55:06.560Z,2.97
2019-03-19T08:00:13.166Z,2.77
2019-03-19T08:05:18.303Z,2.87
2019-03-19T08:10:24.461Z,2.40
2019-03-19T08:15:29.497Z,1.93
2019-03-19T08:20:34.827Z,2.20
2019-03-19T08:25:39.884Z,2.50
2019-03-19T08:30:44.905Z,3.10
2019-03-19T08:35:49.987Z,2.30
2019-03-19T08:40:55.042Z,2.07
2019-03-19T08:46:00.062Z,1.97
2019-03-19T08:51:05.112Z,1.57
2019-03-19T08:56:10.133Z,1.40
2019-03-19T09:01:15.257Z,1.63
2019-03-19T09:06:20.216Z,1.30
2019-03-19T09:11:25.362Z,1.53
2019-03-19T09:16:30.416Z,1.30
2019-03-19T09:21:35.850Z,1.20
2019-03-19T09:26:40.909Z,1.20
2019-03-19T09:31:45.962Z,1.10
2019-03-19T09:36:57.167Z,1.40
2019-03-19T09:41:57.585Z,0.80
2019-03-19T09:47:02.887Z,1.23
2019-03-19T09:52:07.912Z,1.10
2019-03-19T09:57:13.778Z,1.20
2019-03-19T10:02:18.834Z,1.20
2019-03-19T10:07:23.826Z,1.07
2019-03-19T10:12:29.081Z,1.20
2019-03-19T10:17:34.132Z,1.63
2019-03-19T10:22:39.186Z,0.90
2019-03-19T10:27:44.242Z,0.70
2019-03-19T10:32:49.600Z,0.83
2019-03-19T10:37:54.589Z,0.70
2019-03-19T10:42:59.682Z,0.60
2019-03-19T10:48:05.066Z,0.90
2019-03-19T10:53:10.051Z,0.50
2019-03-19T10:58:15.140Z,0.50
2019-03-19T11:03:20.230Z,0.70
2019-03-19T11:08:25.283Z,0.80
2019-03-19T11:13:30.305Z,0.90
2019-03-19T11:18:35.388Z,0.87
2019-03-19T11:23:40.352Z,0.87
2019-03-19T11:28:45.341Z,0.70
2019-03-19T11:33:50.414Z,0.87
2019-03-19T11:38:55.408Z,1.10
2019-03-19T11:44:00.405Z,0.90
2019-03-19T11:49:06.017Z,1.00
2019-03-19T11:54:11.073Z,1.10
2019-03-19T11:59:16.035Z,1.20
2019-03-19T12:04:21.179Z,0.93
2019-03-19T12:09:26.205Z,0.90
2019-03-19T12:14:31.202Z,0.93
2019-03-19T12:19:36.340Z,1.17
2019-03-19T12:24:41.302Z,0.63
2019-03-19T12:29:46.453Z,0.73
2019-03-19T12:34:51.464Z,1.13
2019-03-19T12:39:56.517Z,0.83
2019-03-19T12:45:01.574Z,0.70
2019-03-19T12:50:07.899Z,1.10
2019-03-19T12:55:14.829Z,0.90
2019-03-19T13:00:20.929Z,0.80
2019-03-19T13:05:26.121Z,0.70
2019-03-19T13:10:31.155Z,0.70
2019-03-19T13:15:36.169Z,0.77
2019-03-19T13:20:41.250Z,0.80
2019-03-19T13:25:46.337Z,0.77
2019-03-19T13:30:51.362Z,1.00
2019-03-19T13:35:56.447Z,0.80
2019-03-19T13:41:03.153Z,0.87
2019-03-19T13:46:08.395Z,0.90
2019-03-19T13:51:13.757Z,1.43
2019-03-19T13:56:19.086Z,0.83
2019-03-19T14:01:24.137Z,0.80
2019-03-19T14:06:29.140Z,0.90
2019-03-19T14:11:34.137Z,1.10
2019-03-19T14:16:39.194Z,1.10
2019-03-19T14:21:44.257Z,1.00
2019-03-19T14:26:50.425Z,1.20
2019-03-19T14:32:14.534Z,0.90
2019-03-19T14:37:19.576Z,0.73
2019-03-19T14:42:24.741Z,0.90
2019-03-19T14:47:29.926Z,0.90
2019-03-19T14:52:34.988Z,0.80
2019-03-19T14:57:40.002Z,0.70
2019-03-19T15:02:44.988Z,1.03
2019-03-19T15:07:50.143Z,1.10
2019-03-19T15:12:55.368Z,0.97
2019-03-19T15:18:00.754Z,1.07
2019-03-19T15:23:05.887Z,1.00
2019-03-19T15:28:10.868Z,0.80
2019-03-19T15:33:15.898Z,0.90
2019-03-19T15:38:21.877Z,1.00
2019-03-19T15:43:26.890Z,0.83
2019-03-19T15:48:31.881Z,0.90
2019-03-19T15:53:37.158Z,0.70
2019-03-19T15:58:42.164Z,0.70
2019-03-19T16:03:47.237Z,0.97
2019-03-19T16:08:52.232Z,0.80
2019-03-19T16:13:57.374Z,0.93
2019-03-19T16:19:02.357Z,0.80
2019-03-19T16:24:07.448Z,0.60
2019-03-19T16:29:12.441Z,1.10
2019-03-19T16:34:17.424Z,0.90
2019-03-19T16:39:22.640Z,0.90
2019-03-19T16:44:27.773Z,0.93
2019-03-19T16:49:32.920Z,0.90
2019-03-19T16:54:37.909Z,1.00
2019-03-19T16:59:42.902Z,1.00
2019-03-19T17:04:47.890Z,0.87
2019-03-19T17:15:03.992Z,1.13
2019-03-19T17:20:10.180Z,0.97
2019-03-19T17:25:16.071Z,1.17
2019-03-19T17:30:23.099Z,2.70
2019-03-19T17:35:28.125Z,1.10
2019-03-19T17:40:40.853Z,0.90
2019-03-19T17:45:40.857Z,1.00
2019-03-19T17:50:46.477Z,0.70
2019-03-19T17:55:51.488Z,0.97
2019-03-19T18:00:56.602Z,11.07
2019-03-19T18:06:06.731Z,1.30
2019-03-19T18:11:11.729Z,0.90
2019-03-19T18:16:16.719Z,0.97
2019-03-19T18:21:21.725Z,0.80
2019-03-19T18:26:26.751Z,0.70
2019-03-19T18:31:31.737Z,1.43
2019-03-19T18:36:36.736Z,1.07
2019-03-19T18:41:41.720Z,0.97
2019-03-19T18:46:46.968Z,1.60
2019-03-19T18:51:53.836Z,1.27
2019-03-19T18:56:58.769Z,1.63
2019-03-19T19:02:03.781Z,1.67
2019-03-19T19:07:08.855Z,1.50
2019-03-19T19:12:13.865Z,1.40
2019-03-19T19:17:18.963Z,1.80
2019-03-19T19:22:23.974Z,1.70
2019-03-19T19:27:28.977Z,1.73
2019-03-19T19:32:33.986Z,1.70
2019-03-19T19:37:39.011Z,1.57
2019-03-19T19:42:45.947Z,2.00
2019-03-19T19:47:51.349Z,2.10
2019-03-19T19:52:56.449Z,1.80
2019-03-19T19:58:01.850Z,2.43
2019-03-19T20:03:12.168Z,2.37
2019-03-19T20:08:13.561Z,2.57
2019-03-19T20:13:18.607Z,2.10
2019-03-19T20:18:23.608Z,2.53
2019-03-19T20:23:28.651Z,3.20
2019-03-19T20:28:33.593Z,3.10
2019-03-19T20:33:38.627Z,2.67
2019-03-19T20:38:43.672Z,3.97
2019-03-19T20:43:48.670Z,3.07
2019-03-19T20:48:53.686Z,2.73
2019-03-19T20:53:58.682Z,3.50
2019-03-19T20:59:03.684Z,3.73
2019-03-19T21:04:08.692Z,3.03
2019-03-19T21:09:13.706Z,3.43
2019-03-19T21:14:18.685Z,3.07
2019-03-19T21:19:23.725Z,3.73
2019-03-19T21:24:28.749Z,4.60
2019-03-19T21:29:33.733Z,4.90
2019-03-19T21:34:39.888Z,4.63
2019-03-19T21:39:44.832Z,4.23
2019-03-19T21:44:49.836Z,4.90
2019-03-19T21:49:54.937Z,4.43
2019-03-19T21:54:59.977Z,4.53
2019-03-19T22:00:06.088Z,4.87
2019-03-19T22:05:12.863Z,4.00
2019-03-19T22:10:16.314Z,4.13
2019-03-19T22:15:19.216Z,4.80
2019-03-19T22:20:21.742Z,5.03
2019-03-19T22:25:24.364Z,5.13
2019-03-19T22:30:28.329Z,5.13
2019-03-19T22:35:31.033Z,5.77
2019-03-19T22:40:33.549Z,5.47
2019-03-19T22:45:36.434Z,5.00
2019-03-19T22:50:39.014Z,5.30
2019-03-19T22:55:41.620Z,5.40
2019-03-19T23:00:46.654Z,5.27
2019-03-19T23:05:49.603Z,6.07
2019-03-19T23:10:52.481Z,6.83
2019-03-19T23:15:55.152Z,6.33
2019-03-19T23:20:57.979Z,5.47
2019-03-19T23:26:00.570Z,6.30
2019-03-19T23:31:03.091Z,5.97
2019-03-19T23:36:05.896Z,6.73
2019-03-19T23:41:08.673Z,6.60
2019-03-19T23:46:11.131Z,6.93
2019-03-19T23:51:13.690Z,6.30
2019-03-19T23:56:16.459Z,8.30
